createdAt,value
2022-12-08T00:01:19.001Z,38.77
2022-12-08T00:03:47.260Z,38.25
2022-12-08T00:06:41.417Z,38.86
2022-12-08T00:09:27.178Z,38.41
2022-12-08T00:11:59.426Z,38.60
2022-12-08T00:14:29.008Z,38.37
2022-12-08T00:16:57.387Z,38.47
2022-12-08T00:19:25.770Z,38.53
2022-12-08T00:21:55.734Z,38.21
2022-12-08T00:24:24.299Z,38.00
2022-12-08T00:26:52.620Z,38.19
2022-12-08T00:29:20.770Z,38.20
2022-12-08T00:31:49.163Z,38.63
2022-12-08T00:34:17.509Z,38.09
2022-12-08T00:36:45.786Z,38.43
2022-12-08T00:39:15.911Z,38.21
2022-12-08T00:42:01.528Z,38.44
2022-12-08T00:44:29.756Z,38.37
2022-12-08T00:46:57.857Z,37.96
2022-12-08T00:49:26.051Z,38.39
2022-12-08T00:51:54.409Z,38.26
2022-12-08T00:54:24.286Z,38.39
2022-12-08T00:56:52.576Z,37.95
2022-12-08T00:59:20.684Z,37.89
2022-12-08T01:01:49.085Z,38.21
2022-12-08T01:04:18.126Z,38.42
2022-12-08T01:06:46.910Z,38.23
2022-12-08T01:09:15.741Z,38.20
2022-12-08T01:11:45.642Z,37.86
2022-12-08T01:14:13.867Z,37.89
2022-12-08T01:16:42.287Z,38.17
2022-12-08T01:19:11.210Z,37.92
2022-12-08T01:21:39.548Z,38.13
2022-12-08T01:24:22.350Z,37.64
2022-12-08T01:26:52.413Z,37.90
2022-12-08T01:29:20.774Z,37.86
2022-12-08T01:31:48.995Z,38.09
2022-12-08T01:34:17.175Z,37.91
2022-12-08T01:36:45.450Z,38.13
2022-12-08T01:39:16.032Z,38.03
2022-12-08T01:41:45.003Z,37.86
2022-12-08T01:44:50.447Z,37.87
2022-12-08T01:47:20.019Z,38.13
2022-12-08T01:49:48.183Z,38.04
2022-12-08T01:52:18.258Z,37.59
2022-12-08T01:54:48.425Z,37.94
2022-12-08T01:57:18.255Z,37.76
2022-12-08T01:59:48.367Z,37.94
2022-12-08T02:02:16.702Z,37.32
2022-12-08T02:04:46.742Z,37.25
2022-12-08T02:07:15.006Z,37.23
2022-12-08T02:09:43.119Z,37.98
2022-12-08T02:12:11.339Z,37.54
2022-12-08T02:14:39.474Z,37.51
2022-12-08T02:17:13.691Z,37.57
2022-12-08T02:19:58.178Z,37.45
2022-12-08T02:22:29.475Z,37.80
2022-12-08T02:25:00.971Z,37.70
2022-12-08T02:27:34.585Z,37.68
2022-12-08T02:30:17.230Z,37.35
2022-12-08T02:33:09.614Z,37.79
2022-12-08T02:35:40.923Z,37.62
2022-12-08T02:38:11.077Z,37.40
2022-12-08T02:40:41.795Z,37.66
2022-12-08T02:43:11.443Z,37.44
2022-12-08T02:45:40.903Z,37.83
2022-12-08T02:48:09.391Z,37.12
2022-12-08T02:50:38.978Z,37.51
2022-12-08T02:55:38.566Z,37.30
2022-12-08T02:58:24.447Z,37.18
2022-12-08T03:01:01.971Z,37.54
2022-12-08T03:03:33.153Z,37.19
2022-12-08T03:06:07.119Z,37.13
2022-12-08T03:08:37.426Z,37.34
2022-12-08T03:11:08.662Z,37.73
2022-12-08T03:13:40.335Z,37.09
2022-12-08T03:16:09.525Z,36.99
2022-12-08T03:18:38.996Z,37.72
2022-12-08T03:21:08.847Z,37.09
2022-12-08T03:23:37.519Z,37.62
2022-12-08T03:26:06.870Z,37.25
2022-12-08T03:28:38.366Z,37.12
2022-12-08T03:31:09.217Z,37.57
2022-12-08T03:33:38.538Z,37.64
2022-12-08T03:36:09.706Z,37.18
2022-12-08T03:38:41.124Z,37.16
2022-12-08T03:41:21.090Z,37.42
2022-12-08T03:43:49.778Z,36.94
2022-12-08T03:46:18.302Z,37.40
2022-12-08T03:48:46.668Z,37.11
2022-12-08T03:51:16.453Z,37.42
2022-12-08T03:53:45.147Z,36.81
2022-12-08T03:56:17.714Z,37.11
2022-12-08T03:58:46.196Z,37.24
2022-12-08T04:01:14.476Z,37.17
2022-12-08T04:03:42.802Z,37.33
2022-12-08T04:06:11.034Z,37.15
2022-12-08T04:08:40.835Z,37.48
2022-12-08T04:11:09.210Z,36.91
2022-12-08T04:13:37.907Z,37.44
2022-12-08T04:16:06.938Z,37.08
2022-12-08T04:18:35.358Z,36.93
2022-12-08T04:21:03.772Z,37.11
2022-12-08T04:23:32.018Z,36.79
2022-12-08T04:26:02.002Z,36.78
2022-12-08T04:28:30.669Z,36.93
2022-12-08T04:30:59.157Z,37.03
2022-12-08T04:33:27.540Z,36.70
2022-12-08T04:35:55.830Z,36.92
2022-12-08T04:38:24.470Z,37.14
2022-12-08T04:40:52.702Z,36.78
2022-12-08T04:43:22.434Z,36.84
2022-12-08T04:45:50.899Z,37.16
2022-12-08T04:48:19.894Z,37.23
2022-12-08T04:50:48.301Z,37.17
2022-12-08T04:53:16.534Z,36.53
2022-12-08T04:55:45.528Z,37.20
2022-12-08T04:58:15.000Z,36.70
2022-12-08T05:00:44.771Z,36.83
2022-12-08T05:03:13.146Z,36.91
2022-12-08T05:05:42.362Z,36.57
2022-12-08T05:08:10.665Z,36.66
2022-12-08T05:10:39.036Z,36.92
2022-12-08T05:13:07.351Z,37.17
2022-12-08T05:15:36.182Z,36.54
2022-12-08T05:18:06.481Z,36.84
2022-12-08T05:20:34.897Z,36.36
2022-12-08T05:23:03.110Z,36.76
2022-12-08T05:25:31.446Z,36.48
2022-12-08T05:28:24.761Z,36.75
2022-12-08T05:30:48.154Z,36.76
2022-12-08T05:33:18.417Z,36.81
2022-12-08T05:35:46.789Z,36.95
2022-12-08T05:38:15.151Z,37.01
2022-12-08T05:40:44.265Z,36.80
2022-12-08T05:43:13.626Z,37.09
2022-12-08T05:45:41.907Z,36.75
2022-12-08T05:48:10.286Z,36.64
2022-12-08T05:50:39.982Z,36.49
2022-12-08T05:53:08.318Z,36.94
2022-12-08T05:55:36.639Z,36.42
2022-12-08T05:58:07.971Z,36.92
2022-12-08T06:00:36.597Z,36.92
2022-12-08T06:03:05.168Z,36.93
2022-12-08T06:05:34.092Z,36.75
2022-12-08T06:08:04.025Z,36.57
2022-12-08T06:10:32.482Z,36.82
2022-12-08T06:13:00.705Z,37.01
2022-12-08T06:15:28.922Z,37.06
2022-12-08T06:17:57.020Z,36.65
2022-12-08T06:20:25.203Z,36.80
2022-12-08T06:22:53.305Z,36.55
2022-12-08T06:25:22.910Z,36.71
2022-12-08T06:27:51.046Z,36.90
2022-12-08T06:30:19.408Z,36.63
2022-12-08T06:32:47.725Z,36.66
2022-12-08T06:35:16.074Z,37.09
2022-12-08T06:37:44.207Z,37.07
2022-12-08T06:40:13.288Z,36.90
2022-12-08T06:42:47.416Z,36.97
2022-12-08T06:45:16.604Z,36.99
2022-12-08T06:47:44.883Z,36.71
2022-12-08T06:50:13.510Z,37.02
2022-12-08T06:52:54.194Z,37.05
2022-12-08T06:58:19.398Z,36.86
2022-12-08T07:00:47.896Z,37.22
2022-12-08T07:03:16.203Z,37.02
2022-12-08T07:05:44.501Z,36.39
2022-12-08T07:08:12.704Z,36.36
2022-12-08T07:10:40.945Z,37.10
2022-12-08T07:13:09.051Z,36.80
2022-12-08T07:15:38.621Z,36.89
2022-12-08T07:18:06.847Z,37.23
2022-12-08T07:20:35.025Z,36.87
2022-12-08T07:23:03.265Z,36.94
2022-12-08T07:25:31.538Z,36.80
2022-12-08T07:27:59.819Z,37.09
2022-12-08T07:30:27.944Z,36.76
2022-12-08T07:32:57.630Z,36.98
2022-12-08T07:35:25.850Z,37.14
2022-12-08T07:37:54.001Z,37.25
2022-12-08T07:40:22.188Z,36.84
2022-12-08T07:42:50.317Z,37.31
2022-12-08T07:45:18.630Z,37.17
2022-12-08T07:47:46.734Z,36.79
2022-12-08T07:50:16.401Z,37.30
2022-12-08T07:52:44.564Z,37.49
2022-12-08T07:55:12.658Z,37.71
2022-12-08T07:57:40.981Z,37.61
2022-12-08T08:00:10.276Z,37.49
2022-12-08T08:02:41.486Z,37.48
2022-12-08T08:05:10.763Z,37.87
2022-12-08T08:07:42.144Z,37.80
2022-12-08T08:10:11.044Z,37.85
2022-12-08T08:12:39.402Z,38.31
2022-12-08T08:15:08.997Z,38.23
2022-12-08T08:17:37.536Z,38.13
2022-12-08T08:20:07.431Z,38.24
2022-12-08T08:22:37.032Z,38.40
2022-12-08T08:25:07.218Z,38.50
2022-12-08T08:27:35.425Z,38.47
2022-12-08T08:30:06.449Z,38.39
2022-12-08T08:32:35.143Z,38.33
2022-12-08T08:35:04.453Z,38.77
2022-12-08T08:37:32.587Z,38.41
2022-12-08T08:40:00.778Z,38.50
2022-12-08T08:42:30.486Z,38.51
2022-12-08T08:44:58.876Z,38.63
2022-12-08T08:47:27.069Z,38.26
2022-12-08T08:49:55.270Z,38.66
2022-12-08T08:52:23.494Z,38.26
2022-12-08T08:54:51.779Z,38.74
2022-12-08T08:57:25.282Z,38.51
2022-12-08T08:59:55.526Z,38.63
2022-12-08T09:02:23.674Z,38.39
2022-12-08T09:04:51.859Z,38.19
2022-12-08T09:07:20.063Z,38.59
2022-12-08T09:09:48.308Z,38.13
2022-12-08T09:12:16.488Z,37.99
2022-12-08T09:14:44.636Z,37.96
2022-12-08T09:17:14.299Z,37.39
2022-12-08T09:19:42.541Z,38.02
2022-12-08T09:22:10.704Z,37.75
2022-12-08T09:24:38.918Z,37.78
2022-12-08T09:27:07.034Z,38.17
2022-12-08T09:29:36.319Z,38.00
2022-12-08T09:32:04.979Z,37.39
2022-12-08T09:34:34.587Z,37.91
2022-12-08T09:37:02.799Z,37.99
2022-12-08T09:39:30.934Z,37.64
2022-12-08T09:42:00.912Z,37.81
2022-12-08T09:44:45.498Z,37.54
2022-12-08T09:47:24.369Z,37.80
2022-12-08T09:49:59.977Z,37.89
2022-12-08T09:52:32.027Z,37.23
2022-12-08T09:55:00.846Z,37.99
2022-12-08T09:57:30.498Z,37.57
2022-12-08T09:59:59.829Z,37.89
2022-12-08T10:02:29.770Z,37.67
2022-12-08T10:05:00.149Z,37.73
2022-12-08T10:07:33.543Z,37.60
2022-12-08T10:10:05.922Z,37.91
2022-12-08T10:12:38.258Z,37.93
2022-12-08T10:15:27.967Z,38.18
2022-12-08T10:17:56.289Z,37.93
2022-12-08T10:20:27.353Z,38.14
2022-12-08T10:23:00.076Z,38.16
2022-12-08T10:25:30.090Z,37.62
2022-12-08T10:27:58.333Z,38.10
2022-12-08T10:30:26.643Z,37.63
2022-12-08T10:32:55.121Z,38.04
2022-12-08T10:35:23.621Z,38.40
2022-12-08T10:37:58.442Z,38.02
2022-12-08T10:40:28.237Z,38.02
2022-12-08T10:42:57.783Z,38.01
2022-12-08T10:45:27.126Z,37.66
2022-12-08T10:48:02.628Z,38.19
2022-12-08T10:50:33.530Z,38.62
2022-12-08T10:53:04.091Z,38.26
2022-12-08T10:55:40.461Z,38.58
2022-12-08T10:58:25.794Z,38.69
2022-12-08T11:00:55.600Z,38.73
2022-12-08T11:03:26.416Z,39.07
2022-12-08T11:05:58.101Z,39.25
2022-12-08T11:08:28.122Z,39.04
2022-12-08T11:10:56.564Z,39.10
2022-12-08T11:13:26.319Z,38.77
2022-12-08T11:15:55.630Z,39.06
2022-12-08T11:18:27.386Z,38.69
2022-12-08T11:21:03.732Z,38.72
2022-12-08T11:23:34.570Z,38.87
2022-12-08T11:26:06.509Z,38.26
2022-12-08T11:28:34.999Z,38.17
2022-12-08T11:31:16.552Z,38.13
2022-12-08T11:33:44.924Z,38.56
2022-12-08T11:36:14.163Z,38.26
2022-12-08T11:38:45.467Z,38.21
2022-12-08T11:41:16.694Z,38.42
2022-12-08T11:43:48.361Z,37.98
2022-12-08T11:46:19.494Z,38.38
2022-12-08T11:48:49.981Z,38.59
2022-12-08T11:51:20.517Z,38.03
2022-12-08T11:53:54.583Z,38.39
2022-12-08T11:56:25.267Z,38.19
2022-12-08T11:58:55.185Z,38.09
2022-12-08T12:01:24.475Z,38.02
2022-12-08T12:04:00.746Z,38.21
2022-12-08T12:06:55.786Z,38.52
2022-12-08T12:09:32.135Z,38.31
2022-12-08T12:12:14.454Z,38.32
2022-12-08T12:14:59.738Z,38.59
2022-12-08T12:17:35.363Z,38.22
2022-12-08T12:20:06.414Z,38.04
2022-12-08T12:22:36.378Z,38.15
2022-12-08T12:25:06.837Z,37.87
2022-12-08T12:27:39.064Z,37.83
2022-12-08T12:30:09.320Z,37.83
2022-12-08T12:32:46.196Z,37.93
2022-12-08T12:35:20.392Z,37.98
2022-12-08T12:37:52.514Z,38.26
2022-12-08T12:40:24.863Z,38.05
2022-12-08T12:43:14.415Z,38.48
2022-12-08T12:45:44.978Z,37.81
2022-12-08T12:48:24.412Z,38.29
2022-12-08T12:50:53.083Z,38.29
2022-12-08T12:53:49.979Z,38.22
2022-12-08T12:56:51.314Z,38.08
2022-12-08T12:59:34.911Z,38.23
2022-12-08T13:02:03.859Z,37.90
2022-12-08T13:04:34.377Z,38.81
2022-12-08T13:07:02.871Z,38.77
2022-12-08T13:09:34.110Z,38.46
2022-12-08T13:12:10.683Z,38.80
2022-12-08T13:14:40.146Z,38.58
2022-12-08T13:17:12.233Z,38.40
2022-12-08T13:19:41.107Z,38.72
2022-12-08T13:22:46.752Z,38.36
2022-12-08T13:25:49.989Z,39.04
2022-12-08T13:28:25.567Z,39.34
2022-12-08T13:30:55.172Z,39.08
2022-12-08T13:33:25.739Z,39.08
2022-12-08T13:36:02.200Z,38.90
2022-12-08T13:38:32.259Z,39.07
2022-12-08T13:41:01.631Z,39.58
2022-12-08T13:43:47.293Z,38.97
2022-12-08T13:57:49.524Z,39.82
2022-12-08T14:00:21.003Z,39.36
2022-12-08T14:02:50.084Z,39.31
2022-12-08T14:05:34.732Z,39.47
2022-12-08T14:08:08.935Z,39.30
2022-12-08T14:10:37.160Z,39.42
2022-12-08T14:13:06.814Z,39.79
2022-12-08T14:15:38.530Z,39.55
2022-12-08T14:18:07.523Z,39.49
2022-12-08T14:20:57.709Z,39.77
2022-12-08T14:23:24.554Z,39.58
2022-12-08T14:25:52.747Z,39.65
2022-12-08T14:28:21.771Z,40.05
2022-12-08T14:30:51.521Z,39.80
2022-12-08T14:33:19.781Z,39.78
2022-12-08T14:35:51.438Z,39.90
2022-12-08T14:38:20.363Z,39.46
2022-12-08T14:40:49.134Z,39.71
2022-12-08T14:43:18.608Z,39.84
2022-12-08T14:45:48.317Z,39.57
2022-12-08T14:48:25.593Z,39.87
2022-12-08T14:51:05.640Z,39.91
2022-12-08T14:53:39.685Z,39.65
2022-12-08T14:56:16.873Z,40.09
2022-12-08T14:58:45.161Z,40.27
2022-12-08T15:01:14.552Z,39.76
2022-12-08T15:03:50.400Z,39.65
2022-12-08T15:06:19.527Z,39.60
2022-12-08T15:08:56.015Z,39.91
2022-12-08T15:11:32.042Z,39.84
2022-12-08T15:14:00.440Z,39.79
2022-12-08T15:16:30.680Z,39.38
2022-12-08T15:19:18.888Z,39.48
2022-12-08T15:21:47.290Z,39.34
2022-12-08T15:24:15.541Z,39.58
2022-12-08T15:26:45.846Z,39.38
2022-12-08T15:29:18.075Z,39.90
2022-12-08T15:31:46.436Z,39.62
2022-12-08T15:34:16.125Z,39.72
2022-12-08T15:36:45.799Z,39.53
2022-12-08T15:39:32.997Z,40.07
2022-12-08T15:42:01.401Z,39.94
2022-12-08T15:44:32.674Z,39.94
2022-12-08T15:47:01.294Z,39.84
2022-12-08T15:49:30.921Z,39.50
2022-12-08T15:52:10.719Z,39.67
2022-12-08T15:54:40.083Z,39.26
2022-12-08T15:57:19.578Z,39.33
2022-12-08T15:59:53.696Z,39.43
2022-12-08T16:02:23.067Z,39.40
2022-12-08T16:07:42.927Z,39.32
2022-12-08T16:10:12.968Z,38.93
2022-12-08T16:13:55.429Z,38.76
2022-12-08T16:15:53.537Z,38.71
2022-12-08T16:18:28.405Z,39.17
2022-12-08T16:21:09.686Z,39.16
2022-12-08T16:23:45.670Z,38.74
2022-12-08T16:26:35.552Z,38.79
2022-12-08T16:29:02.522Z,38.62
2022-12-08T16:31:30.748Z,38.45
2022-12-08T16:33:59.158Z,38.61
2022-12-08T16:36:28.697Z,38.09
2022-12-08T16:38:56.879Z,38.06
2022-12-08T16:41:42.579Z,38.54
2022-12-08T16:44:11.087Z,38.39
2022-12-08T16:46:39.260Z,38.28
2022-12-08T16:49:09.194Z,38.33
2022-12-08T16:51:38.853Z,38.28
2022-12-08T16:54:07.397Z,38.51
2022-12-08T16:56:35.731Z,38.47
2022-12-08T16:59:04.892Z,38.27
2022-12-08T17:01:33.189Z,38.24
2022-12-08T17:06:53.030Z,37.98
2022-12-08T17:09:21.306Z,38.27
2022-12-08T17:11:49.550Z,38.53
2022-12-08T17:14:17.805Z,37.98
2022-12-08T17:16:46.166Z,38.30
2022-12-08T17:19:15.325Z,38.44
2022-12-08T17:21:43.503Z,38.05
2022-12-08T17:24:17.149Z,38.07
2022-12-08T17:26:48.538Z,38.39
2022-12-08T17:29:18.748Z,38.12
2022-12-08T17:31:47.159Z,38.12
2022-12-08T17:34:15.367Z,38.12
2022-12-08T17:36:43.613Z,38.00
2022-12-08T17:39:18.424Z,38.20
2022-12-08T17:41:47.501Z,38.19
2022-12-08T17:44:16.659Z,38.19
2022-12-08T17:46:50.643Z,38.07
2022-12-08T17:49:21.015Z,38.71
2022-12-08T17:51:49.326Z,38.68
2022-12-08T17:54:18.984Z,38.33
2022-12-08T17:56:47.233Z,38.37
2022-12-08T17:59:15.539Z,38.05
2022-12-08T18:01:43.998Z,38.03
2022-12-08T18:04:12.276Z,38.33
2022-12-08T18:06:40.619Z,38.33
2022-12-08T18:09:08.866Z,37.79
2022-12-08T18:11:38.420Z,38.02
2022-12-08T18:14:10.031Z,37.95
2022-12-08T18:16:38.655Z,37.65
2022-12-08T18:19:08.243Z,37.81
2022-12-08T18:21:36.537Z,38.21
2022-12-08T18:24:04.998Z,37.81
2022-12-08T18:26:34.425Z,38.15
2022-12-08T18:29:03.893Z,37.67
2022-12-08T18:31:32.076Z,38.04
2022-12-08T18:34:00.230Z,37.63
2022-12-08T18:36:28.464Z,37.99
2022-12-08T18:38:56.767Z,37.86
2022-12-08T18:41:25.839Z,37.96
2022-12-08T18:43:54.283Z,37.79
2022-12-08T18:46:23.864Z,37.66
2022-12-08T18:48:52.286Z,38.26
2022-12-08T18:51:21.170Z,37.61
2022-12-08T18:53:49.365Z,38.08
2022-12-08T18:56:25.354Z,37.80
2022-12-08T18:58:55.392Z,37.69
2022-12-08T19:01:28.318Z,37.94
2022-12-08T19:04:26.871Z,37.38
2022-12-08T19:06:45.504Z,37.94
2022-12-08T19:09:14.219Z,37.97
2022-12-08T19:11:42.570Z,37.47
2022-12-08T19:14:11.055Z,37.76
2022-12-08T19:16:40.606Z,37.90
2022-12-08T19:19:08.790Z,37.85
2022-12-08T19:21:42.922Z,37.48
2022-12-08T19:24:14.211Z,37.94
2022-12-08T19:26:42.516Z,37.75
2022-12-08T19:29:10.896Z,37.68
2022-12-08T19:31:40.451Z,37.92
2022-12-08T19:34:09.324Z,37.51
2022-12-08T19:36:42.388Z,37.33
2022-12-08T19:39:30.722Z,37.56
2022-12-08T19:42:16.028Z,37.21
2022-12-08T19:44:56.039Z,37.24
2022-12-08T19:47:26.402Z,37.22
2022-12-08T19:49:55.114Z,37.61
2022-12-08T19:52:24.217Z,37.23
2022-12-08T19:54:52.516Z,37.49
2022-12-08T19:57:21.276Z,37.29
2022-12-08T19:59:56.025Z,37.22
2022-12-08T20:02:26.483Z,37.12
2022-12-08T20:04:54.745Z,37.48
2022-12-08T20:07:22.848Z,37.12
2022-12-08T20:09:51.001Z,37.23
2022-12-08T20:12:19.097Z,37.18
2022-12-08T20:14:47.404Z,37.25
2022-12-08T20:17:15.550Z,37.28
2022-12-08T20:19:45.141Z,37.43
2022-12-08T20:22:13.345Z,37.18
2022-12-08T20:24:41.445Z,37.34
2022-12-08T20:27:09.633Z,37.25
2022-12-08T20:29:37.723Z,37.29
2022-12-08T20:32:06.157Z,37.63
2022-12-08T20:34:34.628Z,37.71
2022-12-08T20:37:04.550Z,37.34
2022-12-08T20:39:32.767Z,37.47
2022-12-08T20:42:00.926Z,37.58
2022-12-08T20:44:30.273Z,37.47
2022-12-08T20:46:58.584Z,37.14
2022-12-08T20:49:32.795Z,37.35
2022-12-08T20:52:04.165Z,37.42
2022-12-08T20:54:32.453Z,37.32
2022-12-08T20:57:00.587Z,37.82
2022-12-08T20:59:29.213Z,37.52
2022-12-08T21:01:57.594Z,37.45
2022-12-08T21:04:25.990Z,37.34
2022-12-08T21:06:54.237Z,37.92
2022-12-08T21:09:23.867Z,37.29
2022-12-08T21:11:52.504Z,37.70
2022-12-08T21:14:20.821Z,37.61
2022-12-08T21:16:50.190Z,37.76
2022-12-08T21:19:21.714Z,37.57
2022-12-08T21:21:50.795Z,37.57
2022-12-08T21:24:19.359Z,37.60
2022-12-08T21:26:49.015Z,37.70
2022-12-08T21:29:17.305Z,37.30
2022-12-08T21:31:45.568Z,37.75
2022-12-08T21:34:13.839Z,37.46
2022-12-08T21:36:42.110Z,37.70
2022-12-08T21:39:12.870Z,37.49
2022-12-08T21:41:58.735Z,37.72
2022-12-08T21:44:28.420Z,37.69
2022-12-08T21:46:56.678Z,37.64
2022-12-08T21:49:25.052Z,37.34
2022-12-08T21:51:53.213Z,37.54
2022-12-08T21:54:21.479Z,37.24
2022-12-08T21:56:50.176Z,37.34
2022-12-08T21:59:19.059Z,37.78
2022-12-08T22:01:49.081Z,37.56
2022-12-08T22:04:18.231Z,37.65
2022-12-08T22:06:46.684Z,37.56
2022-12-08T22:09:15.458Z,37.30
2022-12-08T22:11:43.986Z,37.32
2022-12-08T22:14:14.940Z,37.34
2022-12-08T22:16:44.089Z,37.79
2022-12-08T22:19:14.271Z,37.20
2022-12-08T22:21:44.837Z,37.83
2022-12-08T22:24:13.342Z,37.25
2022-12-08T22:26:41.453Z,37.57
2022-12-08T22:29:09.966Z,37.72
2022-12-08T22:31:38.361Z,37.27
2022-12-08T22:34:06.841Z,37.42
2022-12-08T22:36:36.602Z,37.43
2022-12-08T22:39:04.958Z,37.98
2022-12-08T22:41:34.087Z,37.57
2022-12-08T22:44:02.436Z,37.23
2022-12-08T22:46:31.606Z,37.11
2022-12-08T22:49:00.103Z,37.20
2022-12-08T22:51:28.284Z,37.09
2022-12-08T22:53:58.097Z,37.83
2022-12-08T22:56:26.485Z,37.28
2022-12-08T22:58:54.759Z,37.63
2022-12-08T23:01:24.549Z,37.53
2022-12-08T23:03:53.043Z,37.46
2022-12-08T23:06:21.860Z,37.35
2022-12-08T23:08:50.490Z,37.40
2022-12-08T23:11:20.176Z,37.62
2022-12-08T23:13:48.636Z,37.60
2022-12-08T23:16:16.888Z,37.00
2022-12-08T23:18:46.537Z,37.60
2022-12-08T23:21:15.876Z,37.24
2022-12-08T23:23:44.444Z,37.65
2022-12-08T23:26:16.661Z,36.88
2022-12-08T23:28:46.552Z,37.49
2022-12-08T23:31:14.880Z,37.25
2022-12-08T23:33:43.216Z,37.33
2022-12-08T23:36:11.745Z,37.36
2022-12-08T23:38:40.304Z,36.97
2022-12-08T23:41:09.164Z,36.83
2022-12-08T23:43:37.419Z,37.34
2022-12-08T23:46:07.719Z,36.92
2022-12-08T23:48:36.137Z,36.98
2022-12-08T23:51:04.488Z,36.64
2022-12-08T23:53:33.164Z,37.28
2022-12-08T23:56:01.495Z,36.96
2022-12-08T23:58:30.886Z,36.90
